Time;durP1;ratioP1;P1;durP2;ratioP2;P2;SDS_P1;SDS_P2;PMS_P1;PMS_P2;Temp;Humidity;BMP_temperature;BMP_pressure;BME280_temperature;BME280_humidity;BME280_pressure;Samples;Min_cycle;Max_cycle;Signal;HPM_P1;HPM_P2
2022/01/06 00:00:08;;;;;;;2.28;1.70;;;1.30;99.90;;;;;;5001729;28;20030;-67
2022/01/06 00:02:34;;;;;;;3.22;1.52;;;1.30;99.90;;;;;;4996886;28;20496;-67
2022/01/06 00:05:00;;;;;;;2.17;1.52;;;1.30;99.90;;;;;;5007608;28;20017;-67
2022/01/06 00:07:25;;;;;;;1.98;1.88;;;1.30;99.90;;;;;;5002911;28;20042;-67
2022/01/06 00:09:52;;;;;;;2.13;1.67;;;1.30;99.90;;;;;;5007948;28;20074;-67
2022/01/06 00:12:20;;;;;;;4.63;1.52;;;1.30;99.90;;;;;;5006262;28;20069;-67
2022/01/06 00:15:02;;;;;;;5.57;2.28;;;1.30;99.90;;;;;;5002948;28;20037;-67
2022/01/06 00:18:11;;;;;;;6.95;1.85;;;1.30;99.90;;;;;;5007538;28;20081;-67
2022/01/06 00:25:53;;;;;;;4.90;1.50;;;1.30;99.90;;;;;;5004632;28;20385;-67
2022/01/06 00:28:19;;;;;;;3.45;1.65;;;1.30;99.90;;;;;;5005483;28;20041;-67
2022/01/06 00:30:45;;;;;;;5.88;2.20;;;1.30;99.90;;;;;;5006436;28;20026;-68
2022/01/06 00:33:11;;;;;;;1.77;1.58;;;1.30;99.90;;;;;;5005103;28;20162;-67
2022/01/06 00:35:38;;;;;;;2.05;1.95;;;1.30;99.90;;;;;;5005788;28;20176;-67
2022/01/06 00:38:07;;;;;;;4.13;1.95;;;1.30;99.90;;;;;;4998824;28;20038;-67
2022/01/06 00:40:34;;;;;;;1.38;1.27;;;1.30;99.90;;;;;;5000560;28;20037;-67
2022/01/06 00:43:02;;;;;;;1.45;1.40;;;1.30;99.90;;;;;;4999171;28;20045;-67
2022/01/06 00:45:27;;;;;;;2.03;1.55;;;1.30;99.90;;;;;;5010426;28;20045;-67
2022/01/06 00:47:53;;;;;;;6.38;1.73;;;1.30;99.90;;;;;;4998065;28;20038;-67
2022/01/06 00:50:18;;;;;;;6.40;1.52;;;1.30;99.90;;;;;;5003729;28;20470;-67
2022/01/06 00:52:44;;;;;;;3.92;2.20;;;1.30;99.90;;;;;;5008821;28;20034;-67
2022/01/06 00:55:10;;;;;;;1.23;1.23;;;1.30;99.90;;;;;;5003897;28;20132;-67
2022/01/06 00:57:35;;;;;;;2.00;1.55;;;1.30;99.90;;;;;;5003263;28;20566;-67
2022/01/06 01:00:01;;;;;;;2.45;1.23;;;1.30;99.90;;;;;;5007534;28;20110;-67
2022/01/06 01:02:26;;;;;;;11.20;1.35;;;1.30;99.90;;;;;;4999179;28;20046;-67
2022/01/06 01:04:52;;;;;;;3.72;1.77;;;1.30;99.90;;;;;;5001837;28;20453;-67
2022/01/06 01:07:18;;;;;;;8.27;2.25;;;1.30;99.90;;;;;;4998354;28;20034;-67
2022/01/06 01:09:43;;;;;;;4.45;1.75;;;1.30;99.90;;;;;;4999182;28;20136;-67
2022/01/06 01:12:09;;;;;;;3.20;2.00;;;1.30;99.90;;;;;;4999007;28;20465;-67
2022/01/06 01:14:45;;;;;;;5.30;1.92;;;1.30;99.90;;;;;;4997399;28;20096;-67
2022/01/06 01:17:15;;;;;;;5.28;2.25;;;1.30;99.90;;;;;;5001430;28;20042;-67
2022/01/06 01:19:41;;;;;;;3.42;1.52;;;1.30;99.90;;;;;;4999328;28;20030;-67
2022/01/06 01:22:08;;;;;;;3.97;1.75;;;1.30;99.90;;;;;;4999463;28;20143;-67
2022/01/06 01:24:34;;;;;;;3.55;1.73;;;1.30;99.90;;;;;;5001053;28;20038;-67
2022/01/06 01:27:00;;;;;;;2.28;1.75;;;1.30;99.90;;;;;;5005790;28;20088;-67
2022/01/06 01:29:27;;;;;;;3.65;2.17;;;1.30;99.90;;;;;;4998303;28;20075;-67
2022/01/06 01:31:55;;;;;;;3.20;2.20;;;1.30;99.90;;;;;;4992213;28;20706;-67
2022/01/06 01:34:27;;;;;;;1.33;1.23;;;1.30;99.90;;;;;;5003027;28;20092;-67
2022/01/06 01:36:55;;;;;;;5.57;1.88;;;1.30;99.90;;;;;;5001670;28;20162;-67
2022/01/06 01:39:21;;;;;;;3.17;1.90;;;1.30;99.90;;;;;;5002738;28;20042;-67
2022/01/06 01:41:47;;;;;;;3.42;1.70;;;1.30;99.90;;;;;;4992154;28;20030;-67
2022/01/06 01:44:15;;;;;;;3.53;1.88;;;1.30;99.90;;;;;;5001039;28;20026;-68
2022/01/06 01:46:45;;;;;;;3.88;2.03;;;1.30;99.90;;;;;;5002508;28;20446;-67
2022/01/06 01:51:50;;;;;;;3.67;2.10;;;1.30;99.90;;;;;;5003016;28;20050;-67
2022/01/06 01:54:15;;;;;;;3.45;1.80;;;1.30;99.90;;;;;;5005118;28;20535;-67
2022/01/06 01:56:41;;;;;;;4.50;1.92;;;1.30;99.90;;;;;;4996761;28;20042;-67
2022/01/06 01:59:07;;;;;;;3.25;3.05;;;1.30;99.90;;;;;;5004953;28;20062;-67
2022/01/06 02:01:33;;;;;;;1.77;1.67;;;1.30;99.90;;;;;;4996756;28;20160;-67
2022/01/06 02:03:58;;;;;;;5.00;1.92;;;1.30;99.90;;;;;;5004195;28;20048;-67
2022/01/06 02:06:24;;;;;;;8.55;2.40;;;1.30;99.90;;;;;;5001474;28;20106;-67
2022/01/06 02:08:54;;;;;;;5.18;1.80;;;1.30;99.90;;;;;;4999177;28;20085;-67
2022/01/06 02:11:21;;;;;;;5.35;1.90;;;1.30;99.90;;;;;;4996598;28;20065;-67
2022/01/06 02:13:47;;;;;;;2.17;1.90;;;1.30;99.90;;;;;;4998915;28;20033;-67
2022/01/06 02:16:13;;;;;;;3.10;1.92;;;1.30;99.90;;;;;;5004317;28;20084;-67
2022/01/06 02:18:39;;;;;;;3.28;2.05;;;1.30;99.90;;;;;;4998726;28;20037;-67
2022/01/06 02:21:04;;;;;;;2.97;2.67;;;1.30;99.90;;;;;;4999967;28;20452;-67
2022/01/06 02:23:30;;;;;;;5.70;1.83;;;1.30;99.90;;;;;;4999369;28;20030;-67
2022/01/06 02:25:56;;;;;;;2.80;1.75;;;1.30;99.90;;;;;;4990576;28;20489;-67
2022/01/06 02:28:22;;;;;;;1.83;1.50;;;1.30;99.90;;;;;;5006608;28;20057;-67
2022/01/06 02:30:51;;;;;;;2.63;2.15;;;1.30;99.90;;;;;;5002861;28;20045;-67
2022/01/06 02:33:20;;;;;;;4.50;2.25;;;1.30;99.90;;;;;;5004171;28;20140;-68
2022/01/06 02:35:47;;;;;;;1.73;1.52;;;1.30;99.90;;;;;;5000910;28;20065;-67
2022/01/06 02:38:13;;;;;;;5.45;2.00;;;1.40;99.90;;;;;;4995489;28;20036;-67
2022/01/06 02:40:39;;;;;;;2.67;1.42;;;1.30;99.90;;;;;;5004558;28;20022;-67
2022/01/06 02:43:06;;;;;;;6.72;1.98;;;1.30;99.90;;;;;;5000003;28;20030;-67
2022/01/06 02:45:33;;;;;;;2.55;1.70;;;1.40;99.90;;;;;;5001796;28;20469;-67
2022/01/06 02:48:08;;;;;;;3.08;2.00;;;1.30;99.90;;;;;;4996598;28;20770;-67
2022/01/06 02:50:36;;;;;;;1.67;1.58;;;1.40;99.90;;;;;;5004644;28;20049;-67
2022/01/06 02:53:02;;;;;;;3.47;3.00;;;1.30;99.90;;;;;;5001537;28;20052;-67
2022/01/06 02:55:27;;;;;;;2.78;2.10;;;1.40;99.90;;;;;;5002350;28;20038;-67
2022/01/06 02:57:53;;;;;;;4.05;2.10;;;1.40;99.90;;;;;;5001526;28;20992;-67
2022/01/06 03:00:19;;;;;;;7.47;2.28;;;1.30;99.90;;;;;;5001365;28;20080;-67
2022/01/06 03:02:46;;;;;;;3.33;2.47;;;1.30;99.90;;;;;;5000473;28;20077;-67
2022/01/06 03:05:13;;;;;;;3.83;1.95;;;1.30;99.90;;;;;;5010000;28;20125;-67
2022/01/06 03:07:39;;;;;;;2.22;1.80;;;1.40;99.90;;;;;;5005547;28;20034;-67
2022/01/06 03:10:09;;;;;;;4.30;2.30;;;1.30;99.90;;;;;;5009752;28;20053;-68
2022/01/06 03:12:41;;;;;;;3.35;1.92;;;1.40;99.90;;;;;;5007440;28;20457;-67
2022/01/06 03:15:21;;;;;;;3.70;1.83;;;1.30;99.90;;;;;;5006789;28;20038;-67
2022/01/06 03:17:52;;;;;;;13.90;2.45;;;1.30;99.90;;;;;;5006414;28;20140;-67
2022/01/06 03:20:21;;;;;;;7.15;2.38;;;1.30;99.90;;;;;;5007368;28;20038;-67
2022/01/06 03:22:47;;;;;;;5.70;2.20;;;1.30;99.90;;;;;;4999101;28;20049;-67
2022/01/06 03:25:13;;;;;;;2.20;2.00;;;1.30;99.90;;;;;;5000614;28;20033;-67
2022/01/06 03:27:41;;;;;;;3.58;2.55;;;1.30;99.90;;;;;;5007084;28;20116;-67
2022/01/06 03:30:10;;;;;;;4.55;2.60;;;1.30;99.90;;;;;;5004018;28;20132;-67
2022/01/06 03:32:36;;;;;;;4.00;2.25;;;1.30;99.90;;;;;;5002149;28;20351;-67
2022/01/06 03:35:02;;;;;;;4.60;2.08;;;1.30;99.90;;;;;;5009714;28;20037;-67
2022/01/06 03:37:28;;;;;;;3.03;1.77;;;1.30;99.90;;;;;;5004884;28;20128;-67
2022/01/06 03:39:53;;;;;;;3.65;2.10;;;1.30;99.90;;;;;;5001040;28;20027;-67
2022/01/06 03:42:19;;;;;;;2.92;1.70;;;1.30;99.90;;;;;;4999309;28;20451;-67
2022/01/06 03:44:44;;;;;;;2.50;1.90;;;1.30;99.90;;;;;;5006240;28;20036;-67
2022/01/06 03:47:11;;;;;;;3.03;2.40;;;1.30;99.90;;;;;;5000359;28;20034;-67
2022/01/06 03:49:37;;;;;;;5.03;1.80;;;1.30;99.90;;;;;;4994879;28;20034;-67
2022/01/06 03:52:03;;;;;;;4.47;2.13;;;1.30;99.90;;;;;;5002839;28;20026;-67
2022/01/06 03:54:28;;;;;;;4.63;1.88;;;1.30;99.90;;;;;;5006889;28;20030;-67
2022/01/06 03:56:54;;;;;;;4.53;2.65;;;1.40;99.90;;;;;;5008306;28;20034;-67
2022/01/06 03:59:20;;;;;;;4.20;1.75;;;1.30;99.90;;;;;;5006537;28;20033;-68
2022/01/06 04:01:46;;;;;;;2.67;1.85;;;1.30;99.90;;;;;;5001639;28;20100;-67
2022/01/06 04:04:13;;;;;;;4.13;2.60;;;1.30;99.90;;;;;;5008040;28;20048;-68
2022/01/06 04:06:40;;;;;;;5.13;1.85;;;1.30;99.90;;;;;;5002610;28;20037;-67
2022/01/06 04:09:06;;;;;;;3.78;1.77;;;1.30;99.90;;;;;;5005996;28;20046;-67
2022/01/06 04:11:31;;;;;;;5.45;1.85;;;1.30;99.90;;;;;;5001670;28;20488;-67
2022/01/06 04:13:57;;;;;;;2.25;1.92;;;1.30;99.90;;;;;;5009758;28;20088;-67
2022/01/06 04:16:25;;;;;;;3.42;2.03;;;1.30;99.90;;;;;;5003223;28;20080;-67
2022/01/06 04:18:51;;;;;;;3.67;2.05;;;1.30;99.90;;;;;;5004731;28;20044;-67
2022/01/06 04:21:16;;;;;;;2.10;1.85;;;1.30;99.90;;;;;;4998386;28;20037;-67
2022/01/06 04:23:42;;;;;;;1.75;1.65;;;1.30;99.90;;;;;;5007687;28;20051;-67
2022/01/06 04:26:08;;;;;;;2.78;2.20;;;1.20;99.90;;;;;;5005943;28;20032;-67
2022/01/06 04:28:34;;;;;;;6.20;2.53;;;1.30;99.90;;;;;;4999282;28;20026;-67
2022/01/06 04:30:59;;;;;;;2.30;2.13;;;1.30;99.90;;;;;;5000990;28;21924;-68
2022/01/06 04:33:25;;;;;;;2.03;1.85;;;1.30;99.90;;;;;;4997125;28;20436;-67
2022/01/06 04:35:50;;;;;;;3.85;2.38;;;1.30;99.90;;;;;;5004825;28;20091;-67
2022/01/06 04:38:16;;;;;;;1.85;1.75;;;1.30;99.90;;;;;;5005039;28;20177;-67
2022/01/06 04:40:42;;;;;;;3.25;1.67;;;1.20;99.90;;;;;;5004254;28;20030;-67
2022/01/06 04:43:07;;;;;;;5.80;2.53;;;1.20;99.90;;;;;;5005762;28;20136;-67
2022/01/06 04:45:34;;;;;;;2.42;2.17;;;1.20;99.90;;;;;;5004831;28;20030;-67
2022/01/06 04:47:59;;;;;;;5.85;2.42;;;1.20;99.90;;;;;;4996395;28;20034;-67
2022/01/06 04:50:25;;;;;;;3.33;2.30;;;1.20;99.90;;;;;;5003468;28;20466;-67
2022/01/06 04:52:51;;;;;;;4.60;2.97;;;1.10;99.90;;;;;;5008634;28;20394;-67
2022/01/06 04:55:16;;;;;;;3.28;2.97;;;1.20;99.90;;;;;;5007880;28;20436;-67
2022/01/06 04:57:43;;;;;;;2.88;2.67;;;1.20;99.90;;;;;;5002039;28;20037;-67
2022/01/06 05:00:09;;;;;;;2.40;2.20;;;1.20;99.90;;;;;;5007925;28;20026;-67
2022/01/06 05:02:35;;;;;;;3.85;2.20;;;1.20;99.90;;;;;;4997484;28;20378;-67
2022/01/06 05:05:00;;;;;;;2.08;1.90;;;1.20;99.90;;;;;;5006263;28;20065;-67
2022/01/06 05:07:26;;;;;;;4.28;2.50;;;1.20;99.90;;;;;;4991659;28;20042;-67
2022/01/06 05:09:51;;;;;;;4.85;2.17;;;1.20;99.90;;;;;;5003651;28;20054;-68
2022/01/06 05:12:17;;;;;;;5.45;2.80;;;1.20;99.90;;;;;;4985971;28;20049;-67
2022/01/06 05:14:43;;;;;;;2.53;2.08;;;1.20;99.90;;;;;;5006025;28;20026;-67
2022/01/06 05:17:09;;;;;;;3.92;2.38;;;1.20;99.90;;;;;;4998754;28;20096;-67
2022/01/06 05:19:35;;;;;;;4.53;2.70;;;1.20;99.90;;;;;;4994608;28;20484;-67
2022/01/06 05:22:02;;;;;;;3.25;2.08;;;1.20;99.90;;;;;;4997023;28;20117;-67
2022/01/06 05:24:28;;;;;;;3.83;2.90;;;1.20;99.90;;;;;;4996080;28;20030;-67
2022/01/06 05:26:55;;;;;;;7.88;2.85;;;1.20;99.90;;;;;;4997191;28;20045;-67
2022/01/06 05:29:22;;;;;;;4.43;2.25;;;1.20;99.90;;;;;;5000378;28;20541;-67
2022/01/06 05:31:47;;;;;;;2.38;2.17;;;1.20;99.90;;;;;;4996420;28;20476;-67
2022/01/06 05:34:13;;;;;;;4.00;2.25;;;1.20;99.90;;;;;;5004768;28;20030;-67
2022/01/06 05:36:39;;;;;;;3.95;2.60;;;1.20;99.90;;;;;;5002785;28;20052;-67
2022/01/06 05:39:05;;;;;;;4.20;3.13;;;1.20;99.90;;;;;;5003039;28;20374;-68
2022/01/06 05:41:31;;;;;;;2.53;2.28;;;1.10;99.90;;;;;;4993963;28;22952;-67
2022/01/06 05:43:56;;;;;;;2.97;2.58;;;1.10;99.90;;;;;;5001240;28;20036;-67
2022/01/06 05:46:22;;;;;;;2.53;2.25;;;1.10;99.90;;;;;;4996210;28;20038;-67
2022/01/06 05:48:48;;;;;;;5.40;2.80;;;1.10;99.90;;;;;;5000030;28;20428;-67
2022/01/06 05:51:14;;;;;;;3.38;2.45;;;1.00;99.90;;;;;;5003764;28;20069;-67
2022/01/06 05:53:40;;;;;;;3.03;2.58;;;1.00;99.90;;;;;;5001819;28;20052;-67
2022/01/06 05:56:05;;;;;;;4.03;2.50;;;1.00;99.90;;;;;;5003481;28;20117;-67
2022/01/06 05:58:31;;;;;;;6.40;2.53;;;1.00;99.90;;;;;;4995552;28;20454;-67
2022/01/06 06:00:57;;;;;;;3.38;2.88;;;1.00;99.90;;;;;;5000483;28;20042;-67
2022/01/06 06:03:27;;;;;;;3.60;3.20;;;1.00;99.90;;;;;;4999057;28;20085;-67
2022/01/06 06:05:55;;;;;;;3.78;2.60;;;1.10;99.90;;;;;;5006984;28;20473;-67
2022/01/06 06:08:21;;;;;;;3.38;2.15;;;1.00;99.90;;;;;;5002630;28;20096;-67
2022/01/06 06:10:48;;;;;;;4.55;2.10;;;1.10;99.90;;;;;;5003348;28;20369;-67
2022/01/06 06:13:14;;;;;;;3.80;2.30;;;1.10;99.90;;;;;;5000586;28;20061;-67
2022/01/06 06:15:39;;;;;;;2.42;2.22;;;1.10;99.90;;;;;;5003541;28;20055;-67
2022/01/06 06:18:07;;;;;;;2.35;2.17;;;1.10;99.90;;;;;;5005145;28;20022;-67
2022/01/06 06:20:33;;;;;;;2.45;2.33;;;1.10;99.90;;;;;;4995755;28;20034;-67
2022/01/06 06:22:59;;;;;;;4.55;2.13;;;1.10;99.90;;;;;;4998725;28;20532;-67
2022/01/06 06:25:25;;;;;;;2.17;1.95;;;1.10;99.90;;;;;;5001936;28;20068;-67
2022/01/06 06:27:51;;;;;;;1.88;1.77;;;1.10;99.90;;;;;;5005405;28;20033;-67
2022/01/06 06:30:18;;;;;;;2.40;2.20;;;1.10;99.90;;;;;;5000844;28;20412;-67
2022/01/06 06:32:44;;;;;;;1.92;1.83;;;1.10;99.90;;;;;;4998999;28;20052;-67
2022/01/06 06:35:09;;;;;;;3.17;2.13;;;1.00;99.90;;;;;;5008183;28;20033;-67
2022/01/06 06:37:35;;;;;;;4.10;2.78;;;1.10;99.90;;;;;;5008650;28;20034;-67
2022/01/06 06:40:01;;;;;;;2.53;2.33;;;1.10;99.90;;;;;;5002361;28;20033;-67
2022/01/06 06:42:30;;;;;;;2.72;2.08;;;1.10;99.90;;;;;;4999059;28;21569;-67
2022/01/06 06:44:57;;;;;;;3.88;2.03;;;1.10;99.90;;;;;;5003332;28;20030;-67
2022/01/06 06:47:23;;;;;;;2.38;2.17;;;1.10;99.90;;;;;;5003819;28;20454;-67
2022/01/06 06:49:48;;;;;;;2.75;2.60;;;1.10;99.90;;;;;;5009077;28;20022;-67
2022/01/06 06:52:14;;;;;;;6.00;2.97;;;1.10;99.90;;;;;;5005925;28;20176;-67
2022/01/06 06:54:40;;;;;;;4.40;2.95;;;1.10;99.90;;;;;;5009056;28;20041;-67
2022/01/06 06:57:06;;;;;;;3.08;2.67;;;1.10;99.90;;;;;;5000439;28;20033;-67
2022/01/06 06:59:32;;;;;;;2.85;2.50;;;1.10;99.90;;;;;;5004487;28;20095;-67
2022/01/06 07:01:57;;;;;;;3.80;2.85;;;1.10;99.90;;;;;;5002092;28;20077;-67
2022/01/06 07:04:23;;;;;;;2.63;2.35;;;1.10;99.90;;;;;;5003800;28;20029;-67
2022/01/06 07:06:49;;;;;;;5.45;2.33;;;1.10;99.90;;;;;;5002552;28;20411;-68
2022/01/06 07:09:15;;;;;;;2.78;2.03;;;1.10;99.90;;;;;;4993208;28;20048;-67
2022/01/06 07:11:41;;;;;;;2.78;2.38;;;1.10;99.90;;;;;;4998507;28;20037;-67
2022/01/06 07:14:07;;;;;;;4.55;2.38;;;1.10;99.90;;;;;;5004190;28;20080;-67
2022/01/06 07:16:32;;;;;;;5.10;2.38;;;1.20;99.90;;;;;;5006411;28;20030;-67
2022/01/06 07:18:58;;;;;;;2.65;2.45;;;1.20;99.90;;;;;;5004889;28;20474;-67
2022/01/06 07:21:23;;;;;;;5.40;2.67;;;1.10;99.90;;;;;;5006564;28;20080;-67
2022/01/06 07:23:49;;;;;;;2.33;2.17;;;1.20;99.90;;;;;;5007064;28;20062;-67
2022/01/06 07:26:15;;;;;;;5.70;3.35;;;1.20;99.90;;;;;;4987344;28;20062;-67
2022/01/06 07:28:41;;;;;;;2.55;2.35;;;1.20;99.90;;;;;;5010211;28;20034;-67
2022/01/06 07:31:07;;;;;;;3.15;2.25;;;1.20;99.90;;;;;;5007928;28;20034;-67
2022/01/06 07:33:33;;;;;;;2.53;2.13;;;1.20;99.90;;;;;;5002196;28;20464;-67
2022/01/06 07:35:58;;;;;;;3.20;2.60;;;1.20;99.90;;;;;;5005690;28;20026;-67
2022/01/06 07:38:24;;;;;;;3.00;2.25;;;1.20;99.90;;;;;;5005781;28;20127;-67
2022/01/06 07:40:50;;;;;;;3.42;2.65;;;1.20;99.90;;;;;;5004205;28;20037;-67
2022/01/06 07:43:16;;;;;;;3.83;2.42;;;1.20;99.90;;;;;;5003271;28;20527;-67
2022/01/06 07:45:42;;;;;;;3.05;2.72;;;1.20;99.90;;;;;;5007102;28;20317;-67
2022/01/06 07:48:16;;;;;;;3.58;2.00;;;1.20;99.90;;;;;;5001723;28;20358;-67
2022/01/06 07:50:43;;;;;;;2.13;1.98;;;1.20;99.90;;;;;;4998777;28;20029;-67
2022/01/06 07:53:09;;;;;;;2.78;2.55;;;1.20;99.90;;;;;;5001218;28;20037;-67
2022/01/06 07:55:34;;;;;;;2.60;2.35;;;1.20;99.90;;;;;;5005345;28;22059;-67
2022/01/06 07:58:00;;;;;;;4.22;3.40;;;1.20;99.90;;;;;;4993016;28;20041;-67
2022/01/06 08:00:26;;;;;;;2.22;1.92;;;1.20;99.90;;;;;;4991264;28;20034;-67
2022/01/06 08:02:52;;;;;;;2.67;2.47;;;1.20;99.90;;;;;;4993295;28;20046;-67
2022/01/06 08:05:21;;;;;;;6.20;3.33;;;1.20;99.90;;;;;;4992591;28;20046;-67
2022/01/06 08:07:47;;;;;;;2.78;2.50;;;1.20;99.90;;;;;;4996118;28;20185;-67
2022/01/06 08:10:13;;;;;;;2.80;2.60;;;1.20;99.90;;;;;;4990498;28;20477;-68
2022/01/06 08:12:39;;;;;;;3.05;2.25;;;1.20;99.90;;;;;;4989676;28;21894;-68
2022/01/06 08:15:05;;;;;;;3.33;2.90;;;1.20;99.90;;;;;;4996170;28;20033;-68
2022/01/06 08:17:31;;;;;;;3.67;2.47;;;1.20;99.90;;;;;;4991521;28;20045;-67
2022/01/06 08:19:57;;;;;;;2.72;2.50;;;1.20;99.90;;;;;;4995344;28;20065;-68
2022/01/06 08:22:23;;;;;;;2.40;2.20;;;1.20;99.90;;;;;;4994082;28;21896;-68
2022/01/06 08:24:52;;;;;;;3.05;2.35;;;1.20;99.90;;;;;;4993434;28;20502;-68
2022/01/06 08:27:18;;;;;;;2.78;2.67;;;1.20;99.90;;;;;;4998666;28;20117;-68
2022/01/06 08:29:43;;;;;;;2.25;2.08;;;1.10;99.90;;;;;;4996555;28;20030;-68
2022/01/06 08:32:09;;;;;;;2.85;2.42;;;1.20;99.90;;;;;;4996280;28;20037;-68
2022/01/06 08:34:35;;;;;;;2.38;2.17;;;1.20;99.90;;;;;;4995365;28;20026;-68
2022/01/06 08:37:00;;;;;;;2.05;1.95;;;1.20;99.90;;;;;;4987744;28;20083;-68
2022/01/06 08:39:26;;;;;;;2.10;2.00;;;1.20;99.90;;;;;;4991787;28;20038;-68
2022/01/06 08:41:53;;;;;;;2.22;2.03;;;1.20;99.90;;;;;;4990403;28;20046;-68
2022/01/06 08:44:19;;;;;;;2.55;2.17;;;1.20;99.90;;;;;;4995231;28;20045;-68
2022/01/06 08:46:46;;;;;;;3.03;2.72;;;1.20;99.90;;;;;;4989685;28;20605;-68
2022/01/06 08:49:12;;;;;;;2.40;2.25;;;1.20;99.90;;;;;;4994177;28;20049;-68
2022/01/06 08:51:39;;;;;;;3.30;2.00;;;1.30;99.90;;;;;;5004075;28;20088;-68
2022/01/06 08:54:06;;;;;;;3.03;2.70;;;1.20;99.90;;;;;;5001617;28;20026;-68
2022/01/06 08:56:32;;;;;;;2.80;2.30;;;1.20;99.90;;;;;;5007507;28;20030;-68
2022/01/06 08:58:58;;;;;;;3.50;2.13;;;1.20;99.90;;;;;;5007931;28;20026;-68
2022/01/06 09:01:23;;;;;;;6.57;2.55;;;1.20;99.90;;;;;;5003464;28;20048;-68
2022/01/06 09:03:49;;;;;;;2.33;2.00;;;1.20;99.90;;;;;;4998498;28;20075;-68
2022/01/06 09:06:15;;;;;;;2.50;2.30;;;1.30;99.90;;;;;;5003694;28;20042;-68
2022/01/06 09:08:40;;;;;;;2.63;2.42;;;1.30;99.90;;;;;;4995289;28;20056;-69
2022/01/06 09:11:06;;;;;;;2.88;2.40;;;1.30;99.90;;;;;;5003252;28;20038;-68
2022/01/06 09:13:31;;;;;;;2.78;2.58;;;1.40;99.90;;;;;;5004395;28;20081;-68
2022/01/06 09:15:57;;;;;;;2.03;1.92;;;1.40;99.90;;;;;;4994447;28;20034;-68
2022/01/06 09:18:23;;;;;;;3.58;2.40;;;1.50;99.90;;;;;;5004738;28;20034;-68
2022/01/06 09:20:49;;;;;;;3.63;2.95;;;1.40;99.90;;;;;;4990865;28;20026;-68
2022/01/06 09:23:15;;;;;;;4.72;2.58;;;1.40;99.90;;;;;;4994604;28;20129;-68
2022/01/06 09:25:41;;;;;;;6.55;5.70;;;1.40;99.90;;;;;;4998946;28;20258;-68
2022/01/06 09:28:06;;;;;;;2.47;2.33;;;1.40;99.90;;;;;;4992711;28;20737;-68
2022/01/06 09:30:32;;;;;;;2.20;1.98;;;1.40;99.90;;;;;;4992111;28;20040;-68
2022/01/06 09:32:58;;;;;;;5.65;2.63;;;1.40;99.90;;;;;;4995968;28;20041;-68
2022/01/06 09:35:24;;;;;;;2.80;2.42;;;1.30;99.90;;;;;;4996385;28;20041;-68
2022/01/06 09:37:50;;;;;;;3.25;2.45;;;1.30;99.90;;;;;;4995183;28;20442;-68
2022/01/06 09:40:15;;;;;;;2.28;2.13;;;1.30;99.90;;;;;;4993089;28;20041;-68
2022/01/06 09:42:42;;;;;;;4.40;2.78;;;1.30;99.90;;;;;;4993361;28;20108;-68
2022/01/06 09:45:09;;;;;;;2.67;2.42;;;1.30;99.90;;;;;;4993764;28;20045;-67
2022/01/06 09:47:40;;;;;;;4.77;2.93;;;1.30;99.90;;;;;;4990816;28;21457;-67
2022/01/06 09:50:07;;;;;;;3.30;2.53;;;1.30;99.90;;;;;;4992360;28;20348;-68
2022/01/06 09:52:34;;;;;;;3.17;2.58;;;1.30;99.90;;;;;;4989508;28;20084;-67
2022/01/06 09:55:03;;;;;;;4.68;2.88;;;1.40;99.90;;;;;;4994443;28;20825;-68
2022/01/06 09:57:28;;;;;;;3.15;2.17;;;1.40;99.90;;;;;;4993920;28;20032;-68
2022/01/06 09:59:54;;;;;;;4.13;2.63;;;1.50;99.90;;;;;;4996864;28;20041;-68
2022/01/06 10:02:20;;;;;;;6.35;3.03;;;1.50;99.90;;;;;;4994866;28;20135;-68
2022/01/06 10:04:56;;;;;;;3.67;2.63;;;1.40;99.90;;;;;;4991377;28;20049;-67
2022/01/06 10:07:22;;;;;;;4.07;2.47;;;1.50;99.90;;;;;;4994407;28;20037;-68
2022/01/06 10:09:50;;;;;;;4.00;2.65;;;1.50;99.90;;;;;;4991186;28;20495;-67
2022/01/06 10:12:16;;;;;;;2.95;2.50;;;1.50;99.90;;;;;;4991277;28;20456;-68
2022/01/06 10:14:51;;;;;;;3.58;2.20;;;1.50;99.90;;;;;;5004151;28;20050;-68
2022/01/06 10:17:30;;;;;;;2.03;1.92;;;1.50;99.90;;;;;;4990695;28;20037;-68
2022/01/06 10:19:55;;;;;;;2.53;1.98;;;1.60;99.90;;;;;;4992003;28;20037;-68
2022/01/06 10:22:22;;;;;;;2.20;2.05;;;1.50;99.90;;;;;;4992421;28;20051;-68
2022/01/06 10:24:50;;;;;;;5.43;2.40;;;1.60;99.90;;;;;;5006269;28;20121;-68
2022/01/06 10:27:18;;;;;;;2.95;2.15;;;1.60;99.90;;;;;;4989090;28;20370;-68
2022/01/06 10:29:46;;;;;;;2.75;2.53;;;1.60;99.90;;;;;;5001718;28;20440;-68
2022/01/06 10:32:12;;;;;;;7.32;3.47;;;1.60;99.90;;;;;;4996572;28;20045;-68
2022/01/06 10:34:42;;;;;;;4.45;4.00;;;1.60;99.90;;;;;;4990590;28;20025;-68
2022/01/06 10:37:16;;;;;;;6.00;3.25;;;1.60;99.90;;;;;;4995152;28;20038;-68
2022/01/06 10:39:43;;;;;;;3.63;2.80;;;1.60;99.90;;;;;;4994230;28;20034;-68
2022/01/06 10:42:11;;;;;;;3.30;2.97;;;1.60;99.90;;;;;;5004137;28;20462;-69
2022/01/06 10:44:49;;;;;;;5.75;3.80;;;1.60;99.90;;;;;;5003939;28;20065;-69
2022/01/06 10:47:32;;;;;;;3.97;3.00;;;1.60;99.90;;;;;;4992840;28;20034;-68
2022/01/06 10:50:14;;;;;;;3.80;3.00;;;1.60;99.90;;;;;;5004304;28;20080;-68
2022/01/06 10:52:45;;;;;;;4.90;4.25;;;1.70;99.90;;;;;;5005982;28;20460;-68
2022/01/06 10:55:20;;;;;;;8.45;4.00;;;1.70;99.90;;;;;;4997554;28;20172;-68
2022/01/06 10:58:12;;;;;;;42.95;12.57;;;1.70;99.90;;;;;;4993656;28;20176;-68
2022/01/06 11:00:43;;;;;;;13.60;4.90;;;1.70;99.90;;;;;;4998039;28;20038;-68
2022/01/06 11:03:12;;;;;;;5.43;4.13;;;1.70;99.90;;;;;;4995206;28;20049;-68
2022/01/06 11:05:39;;;;;;;;;;;1.80;99.90;;;;;;5004140;28;20033;-68
2022/01/06 11:08:06;;;;;;;3.60;2.40;;;1.80;99.90;;;;;;5002823;28;19910;-68
2022/01/06 11:10:35;;;;;;;3.15;2.88;;;1.80;99.90;;;;;;5003064;28;20382;-68
2022/01/06 11:13:02;;;;;;;6.57;2.97;;;1.90;99.90;;;;;;4995016;28;20038;-68
2022/01/06 11:15:27;;;;;;;3.53;2.80;;;1.90;99.90;;;;;;4997326;28;20034;-68
2022/01/06 11:17:53;;;;;;;3.90;3.50;;;1.90;99.90;;;;;;4998648;28;20034;-68
2022/01/06 11:20:26;;;;;;;5.65;3.13;;;1.90;99.90;;;;;;5007060;28;20108;-67
2022/01/06 11:22:55;;;;;;;4.13;3.70;;;1.90;99.90;;;;;;5005563;28;20117;-67
2022/01/06 11:25:39;;;;;;;3.92;3.00;;;1.90;99.90;;;;;;5013619;28;20049;-68
2022/01/06 11:28:08;;;;;;;3.35;2.88;;;2.00;99.90;;;;;;5011333;28;20030;-67
2022/01/06 11:30:49;;;;;;;3.20;2.85;;;2.00;99.90;;;;;;5001316;28;20026;-68
2022/01/06 11:33:15;;;;;;;4.90;2.83;;;2.00;99.90;;;;;;5005394;28;20092;-68
2022/01/06 11:35:51;;;;;;;5.43;3.38;;;2.00;99.90;;;;;;5001789;28;20030;-68
2022/01/06 11:38:19;;;;;;;3.65;3.25;;;2.10;99.90;;;;;;5002542;28;20384;-67
2022/01/06 11:40:50;;;;;;;4.07;2.85;;;2.20;99.90;;;;;;5004869;28;20034;-67
2022/01/06 11:43:16;;;;;;;3.67;3.00;;;2.20;99.90;;;;;;5006230;28;20381;-67
2022/01/06 11:45:42;;;;;;;7.18;3.53;;;2.30;99.90;;;;;;5006272;28;20034;-67
2022/01/06 11:48:14;;;;;;;3.47;3.05;;;2.30;99.90;;;;;;4997396;28;20061;-67
2022/01/06 11:50:47;;;;;;;8.40;5.60;;;2.30;99.90;;;;;;4998410;28;20030;-67
2022/01/06 11:53:15;;;;;;;4.70;4.18;;;2.30;99.90;;;;;;4998904;28;20045;-67
2022/01/06 11:55:46;;;;;;;5.65;3.13;;;2.40;99.90;;;;;;5003349;28;20030;-67
2022/01/06 11:58:18;;;;;;;2.80;2.60;;;2.40;99.90;;;;;;5007942;28;20489;-68
2022/01/06 12:00:58;;;;;;;3.17;2.88;;;2.40;99.90;;;;;;5009316;28;20042;-68
2022/01/06 12:03:38;;;;;;;5.50;2.55;;;2.40;99.90;;;;;;5003143;28;20037;-68
2022/01/06 12:06:05;;;;;;;3.70;2.60;;;2.50;99.90;;;;;;5005351;28;20029;-68
2022/01/06 12:08:49;;;;;;;5.88;2.90;;;2.50;99.90;;;;;;5002102;28;20046;-68
2022/01/06 12:11:25;;;;;;;4.22;3.15;;;2.50;99.90;;;;;;5001577;28;20026;-67
2022/01/06 12:13:54;;;;;;;6.57;3.20;;;2.50;99.90;;;;;;4998111;28;20034;-67
2022/01/06 12:16:34;;;;;;;3.78;3.40;;;2.50;99.90;;;;;;5003654;28;20133;-67
2022/01/06 12:19:25;;;;;;;6.10;3.38;;;2.60;99.90;;;;;;5008692;28;20096;-67
2022/01/06 12:21:50;;;;;;;3.03;2.72;;;2.60;99.90;;;;;;5006874;28;20033;-67
2022/01/06 12:24:16;;;;;;;7.03;4.18;;;2.60;99.90;;;;;;5005560;28;20052;-67
2022/01/06 12:26:43;;;;;;;3.80;2.95;;;2.60;99.90;;;;;;5009753;28;20474;-67
2022/01/06 12:29:15;;;;;;;3.88;2.40;;;2.70;99.90;;;;;;5005993;28;20049;-68
2022/01/06 12:31:42;;;;;;;4.47;2.35;;;2.70;99.90;;;;;;5001808;28;20129;-67
2022/01/06 12:34:10;;;;;;;12.43;3.40;;;2.70;99.90;;;;;;5005796;28;20030;-67
2022/01/06 12:36:40;;;;;;;4.35;3.38;;;2.70;99.90;;;;;;5004510;28;22220;-68
2022/01/06 12:39:15;;;;;;;7.10;3.58;;;2.80;99.90;;;;;;5002719;28;20516;-67
2022/01/06 12:41:42;;;;;;;4.50;2.80;;;2.80;99.90;;;;;;4999735;28;20068;-67
2022/01/06 12:44:08;;;;;;;10.70;3.45;;;2.90;99.90;;;;;;5004971;28;20037;-68
2022/01/06 12:46:37;;;;;;;4.13;2.63;;;2.90;99.90;;;;;;5004481;28;20038;-67
2022/01/06 12:49:08;;;;;;;7.20;3.38;;;2.90;99.90;;;;;;5001895;28;20040;-67
2022/01/06 12:51:41;;;;;;;5.57;2.92;;;2.90;99.90;;;;;;5000650;28;20038;-67
2022/01/06 12:54:21;;;;;;;12.25;3.47;;;2.90;99.90;;;;;;5002748;28;20133;-67
2022/01/06 12:56:53;;;;;;;9.18;6.63;;;2.90;99.90;;;;;;5000839;28;20092;-67
2022/01/06 12:59:34;;;;;;;3.83;2.72;;;2.90;99.90;;;;;;5002337;28;20133;-67
2022/01/06 13:02:06;;;;;;;5.43;2.97;;;2.80;99.90;;;;;;4998973;28;20193;-67
2022/01/06 13:04:34;;;;;;;5.28;2.58;;;2.90;99.90;;;;;;5004661;28;20038;-67
2022/01/06 13:07:07;;;;;;;5.80;3.72;;;2.90;99.90;;;;;;4996893;28;20140;-67